sensor_id;sensor_type;location;lat;lon;timestamp;pressure;altitude;pressure_sealevel;temperature;humidity
75543;BME280;64129;53.508;10.476;2024-03-02T00:02:23;100114.59;;;8.22;85.89
75543;BME280;64129;53.508;10.476;2024-03-02T00:05:00;100114.66;;;8.05;87.01
75543;BME280;64129;53.508;10.476;2024-03-02T00:07:30;100119.84;;;8.14;87.01
75543;BME280;64129;53.508;10.476;2024-03-02T00:10:18;100115.44;;;8.19;86.86
75543;BME280;64129;53.508;10.476;2024-03-02T00:12:56;100112.91;;;8.09;86.89
75543;BME280;64129;53.508;10.476;2024-03-02T00:15:48;100114.66;;;8.08;86.27
75543;BME280;64129;53.508;10.476;2024-03-02T00:18:34;100107.69;;;8.12;86.63
75543;BME280;64129;53.508;10.476;2024-03-02T00:21:06;100105.94;;;8.09;86.03
75543;BME280;64129;53.508;10.476;2024-03-02T00:23:48;100103.28;;;8.11;86.39
75543;BME280;64129;53.508;10.476;2024-03-02T00:26:26;100097.13;;;8.27;85.81
75543;BME280;64129;53.508;10.476;2024-03-02T00:28:58;100096.31;;;8.17;86.54
75543;BME280;64129;53.508;10.476;2024-03-02T00:31:39;100093.81;;;7.95;87.17
75543;BME280;64129;53.508;10.476;2024-03-02T00:34:17;100086.78;;;8.04;87.18
75543;BME280;64129;53.508;10.476;2024-03-02T00:36:47;100084.25;;;7.90;87.26
75543;BME280;64129;53.508;10.476;2024-03-02T00:39:19;100093.81;;;7.98;87.37
75543;BME280;64129;53.508;10.476;2024-03-02T00:41:52;100092.84;;;8.12;86.17
75543;BME280;64129;53.508;10.476;2024-03-02T00:44:30;100099.03;;;7.96;86.94
75543;BME280;64129;53.508;10.476;2024-03-02T00:47:08;100100.78;;;7.88;86.64
75543;BME280;64129;53.508;10.476;2024-03-02T00:49:39;100095.66;;;7.66;87.81
75543;BME280;64129;53.508;10.476;2024-03-02T00:52:13;100104.34;;;7.73;87.93
75543;BME280;64129;53.508;10.476;2024-03-02T00:54:40;100092.97;;;7.89;86.45
75543;BME280;64129;53.508;10.476;2024-03-02T00:57:14;100092.97;;;7.86;85.67
75543;BME280;64129;53.508;10.476;2024-03-02T00:59:42;100096.53;;;7.64;86.91
75543;BME280;64129;53.508;10.476;2024-03-02T01:02:17;100098.25;;;7.71;87.40
75543;BME280;64129;53.508;10.476;2024-03-02T01:04:55;100087.88;;;7.60;87.88
75543;BME280;64129;53.508;10.476;2024-03-02T01:07:26;100088.66;;;7.73;86.55
75543;BME280;64129;53.508;10.476;2024-03-02T01:09:53;100075.63;;;7.68;87.49
75543;BME280;64129;53.508;10.476;2024-03-02T01:12:27;100079.97;;;7.73;86.69
75543;BME280;64129;53.508;10.476;2024-03-02T01:15:00;100078.28;;;7.61;87.64
75543;BME280;64129;53.508;10.476;2024-03-02T01:17:29;100070.44;;;7.58;88.37
75543;BME280;64129;53.508;10.476;2024-03-02T01:20:00;100073.84;;;7.78;86.67
75543;BME280;64129;53.508;10.476;2024-03-02T01:22:32;100075.53;;;7.91;85.90
75543;BME280;64129;53.508;10.476;2024-03-02T01:24:59;100080.84;;;7.72;87.44
75543;BME280;64129;53.508;10.476;2024-03-02T01:27:26;100080.81;;;7.79;86.54
75543;BME280;64129;53.508;10.476;2024-03-02T01:29:56;100079.06;;;7.84;86.01
75543;BME280;64129;53.508;10.476;2024-03-02T01:32:27;100073.94;;;7.61;87.36
75543;BME280;64129;53.508;10.476;2024-03-02T01:34:57;100071.34;;;7.52;88.42
75543;BME280;64129;53.508;10.476;2024-03-02T01:37:26;100066.09;;;7.57;87.68
75543;BME280;64129;53.508;10.476;2024-03-02T01:40:02;100069.59;;;7.53;87.54
75543;BME280;64129;53.508;10.476;2024-03-02T01:42:34;100064.41;;;7.40;88.35
75543;BME280;64129;53.508;10.476;2024-03-02T01:45:08;100061.75;;;7.53;88.30
75543;BME280;64129;53.508;10.476;2024-03-02T01:47:39;100060.03;;;7.52;87.83
75543;BME280;64129;53.508;10.476;2024-03-02T01:50:07;100055.66;;;7.55;88.02
75543;BME280;64129;53.508;10.476;2024-03-02T01:52:39;100051.31;;;7.50;87.72
75543;BME280;64129;53.508;10.476;2024-03-02T01:55:16;100053.06;;;7.52;86.94
75543;BME280;64129;53.508;10.476;2024-03-02T01:57:50;100054.84;;;7.47;87.74
75543;BME280;64129;53.508;10.476;2024-03-02T02:00:25;100057.41;;;7.53;86.71
75543;BME280;64129;53.508;10.476;2024-03-02T02:03:03;100060.03;;;7.50;87.00
75543;BME280;64129;53.508;10.476;2024-03-02T02:05:44;100055.69;;;7.51;87.13
75543;BME280;64129;53.508;10.476;2024-03-02T02:08:15;100057.44;;;7.41;87.62
75543;BME280;64129;53.508;10.476;2024-03-02T02:10:45;100061.81;;;7.39;88.02
75543;BME280;64129;53.508;10.476;2024-03-02T02:13:17;100056.56;;;7.40;87.65
75543;BME280;64129;53.508;10.476;2024-03-02T02:15:46;100058.34;;;7.38;88.15
75543;BME280;64129;53.508;10.476;2024-03-02T02:18:26;100054.91;;;7.20;88.67
75543;BME280;64129;53.508;10.476;2024-03-02T02:20:59;100060.06;;;7.41;87.79
75543;BME280;64129;53.508;10.476;2024-03-02T02:23:30;100056.63;;;7.21;89.12
75543;BME280;64129;53.508;10.476;2024-03-02T02:26:00;100057.47;;;7.30;88.72
75543;BME280;64129;53.508;10.476;2024-03-02T02:28:31;100061.00;;;7.20;88.80
75543;BME280;64129;53.508;10.476;2024-03-02T02:31:03;100056.63;;;7.33;88.29
75543;BME280;64129;53.508;10.476;2024-03-02T02:33:50;100054.00;;;7.22;88.16
75543;BME280;64129;53.508;10.476;2024-03-02T02:36:21;100047.88;;;7.43;86.49
75543;BME280;64129;53.508;10.476;2024-03-02T02:39:07;100058.28;;;7.49;87.17
75543;BME280;64129;53.508;10.476;2024-03-02T02:41:39;100053.06;;;7.52;87.14
75543;BME280;64129;53.508;10.476;2024-03-02T02:44:15;100060.06;;;7.43;87.78
75543;BME280;64129;53.508;10.476;2024-03-02T02:46:47;100056.53;;;7.60;86.53
75543;BME280;64129;53.508;10.476;2024-03-02T02:49:21;100056.59;;;7.39;87.37
75543;BME280;64129;53.508;10.476;2024-03-02T02:51:52;100058.34;;;7.41;87.71
75543;BME280;64129;53.508;10.476;2024-03-02T02:54:24;100057.50;;;7.23;88.85
75543;BME280;64129;53.508;10.476;2024-03-02T02:56:51;100055.81;;;7.09;88.98
75543;BME280;64129;53.508;10.476;2024-03-02T02:59:26;100056.66;;;7.24;88.22
75543;BME280;64129;53.508;10.476;2024-03-02T03:01:53;100050.53;;;7.26;86.81
75543;BME280;64129;53.508;10.476;2024-03-02T03:04:25;100050.53;;;7.34;86.70
75543;BME280;64129;53.508;10.476;2024-03-02T03:06:52;100047.97;;;7.09;88.02
75543;BME280;64129;53.508;10.476;2024-03-02T03:09:23;100049.72;;;7.06;88.06
75543;BME280;64129;53.508;10.476;2024-03-02T03:11:50;100047.97;;;7.19;86.99
75543;BME280;64129;53.508;10.476;2024-03-02T03:14:28;100052.31;;;7.18;87.08
75543;BME280;64129;53.508;10.476;2024-03-02T03:16:58;100047.06;;;7.29;86.83
75543;BME280;64129;53.508;10.476;2024-03-02T03:19:33;100047.09;;;7.15;87.15
75543;BME280;64129;53.508;10.476;2024-03-02T03:22:09;100043.59;;;7.11;87.76
75543;BME280;64129;53.508;10.476;2024-03-02T03:24:39;100043.63;;;7.02;88.36
75543;BME280;64129;53.508;10.476;2024-03-02T03:27:14;100044.50;;;7.10;88.62
75543;BME280;64129;53.508;10.476;2024-03-02T03:29:49;100043.63;;;7.01;88.37
75543;BME280;64129;53.508;10.476;2024-03-02T03:32:19;100041.00;;;7.10;87.85
75543;BME280;64129;53.508;10.476;2024-03-02T03:34:46;100043.63;;;7.10;87.73
75543;BME280;64129;53.508;10.476;2024-03-02T03:37:17;100043.59;;;7.13;87.64
75543;BME280;64129;53.508;10.476;2024-03-02T03:39:52;100041.00;;;7.08;88.27
75543;BME280;64129;53.508;10.476;2024-03-02T03:42:20;100043.59;;;7.13;87.56
75543;BME280;64129;53.508;10.476;2024-03-02T03:44:50;100041.88;;;7.07;88.47
75543;BME280;64129;53.508;10.476;2024-03-02T03:47:21;100048.84;;;7.07;88.21
75543;BME280;64129;53.508;10.476;2024-03-02T03:49:50;100040.16;;;7.05;88.52
75543;BME280;64129;53.508;10.476;2024-03-02T03:52:25;100035.78;;;7.10;87.37
75543;BME280;64129;53.508;10.476;2024-03-02T03:54:55;100042.75;;;7.08;88.11
75543;BME280;64129;53.508;10.476;2024-03-02T03:57:28;100036.66;;;7.06;88.55
75543;BME280;64129;53.508;10.476;2024-03-02T03:59:58;100036.72;;;6.86;89.30
75543;BME280;64129;53.508;10.476;2024-03-02T04:02:43;100036.69;;;6.97;87.93
75543;BME280;64129;53.508;10.476;2024-03-02T04:05:13;100036.69;;;7.00;88.82
75543;BME280;64129;53.508;10.476;2024-03-02T04:07:43;100034.94;;;6.94;89.19
75543;BME280;64129;53.508;10.476;2024-03-02T04:10:17;100033.19;;;6.99;89.02
75543;BME280;64129;53.508;10.476;2024-03-02T04:12:51;100034.06;;;7.10;88.11
75543;BME280;64129;53.508;10.476;2024-03-02T04:15:23;100041.91;;;7.04;88.88
75543;BME280;64129;53.508;10.476;2024-03-02T04:17:54;100042.78;;;6.97;88.85
75543;BME280;64129;53.508;10.476;2024-03-02T04:20:28;100034.94;;;7.06;88.22
75543;BME280;64129;53.508;10.476;2024-03-02T04:23:06;100044.50;;;6.98;87.64
75543;BME280;64129;53.508;10.476;2024-03-02T04:25:39;100041.03;;;6.93;89.01
75543;BME280;64129;53.508;10.476;2024-03-02T04:28:05;100036.69;;;6.92;88.91
75543;BME280;64129;53.508;10.476;2024-03-02T04:30:32;100042.75;;;7.03;87.78
75543;BME280;64129;53.508;10.476;2024-03-02T04:33:06;100032.34;;;6.93;89.26
75543;BME280;64129;53.508;10.476;2024-03-02T04:35:47;100029.72;;;6.99;88.09
75543;BME280;64129;53.508;10.476;2024-03-02T04:38:21;100034.94;;;6.89;89.18
75543;BME280;64129;53.508;10.476;2024-03-02T04:40:56;100034.94;;;6.80;89.86
75543;BME280;64129;53.508;10.476;2024-03-02T04:43:31;100034.06;;;6.89;89.40
75543;BME280;64129;53.508;10.476;2024-03-02T04:46:05;100038.44;;;6.96;88.71
75543;BME280;64129;53.508;10.476;2024-03-02T04:48:50;100044.53;;;6.92;89.21
75543;BME280;64129;53.508;10.476;2024-03-02T04:51:29;100037.53;;;6.94;88.62
75543;BME280;64129;53.508;10.476;2024-03-02T04:53:59;100033.25;;;6.62;90.80
75543;BME280;64129;53.508;10.476;2024-03-02T04:56:26;100034.09;;;6.84;89.76
75543;BME280;64129;53.508;10.476;2024-03-02T04:59:32;100017.59;;;6.59;90.91
75543;BME280;64129;53.508;10.476;2024-03-02T05:02:02;100022.81;;;6.67;91.34
75543;BME280;64129;53.508;10.476;2024-03-02T05:04:29;100021.06;;;6.74;90.01
75543;BME280;64129;53.508;10.476;2024-03-02T05:07:01;100021.94;;;6.60;90.62
75543;BME280;64129;53.508;10.476;2024-03-02T05:09:39;100031.50;;;6.58;91.16
75543;BME280;64129;53.508;10.476;2024-03-02T05:12:18;100041.03;;;6.84;89.56
75543;BME280;64129;53.508;10.476;2024-03-02T05:15:21;100048.91;;;6.62;89.51
75543;BME280;64129;53.508;10.476;2024-03-02T05:18:00;100050.59;;;6.89;88.77
75543;BME280;64129;53.508;10.476;2024-03-02T05:20:32;100042.78;;;6.82;90.04
75543;BME280;64129;53.508;10.476;2024-03-02T05:23:15;100054.97;;;6.64;91.13
75543;BME280;64129;53.508;10.476;2024-03-02T05:25:42;100049.75;;;6.60;90.26
75543;BME280;64129;53.508;10.476;2024-03-02T05:28:13;100042.78;;;6.62;90.02
75543;BME280;64129;53.508;10.476;2024-03-02T05:30:45;100044.53;;;6.72;90.92
75543;BME280;64129;53.508;10.476;2024-03-02T05:33:16;100047.16;;;6.72;90.73
75543;BME280;64129;53.508;10.476;2024-03-02T05:35:49;100041.06;;;6.59;91.31
75543;BME280;64129;53.508;10.476;2024-03-02T05:38:28;100044.53;;;6.81;89.79
75543;BME280;64129;53.508;10.476;2024-03-02T05:41:02;100043.69;;;6.81;90.49
75543;BME280;64129;53.508;10.476;2024-03-02T05:43:34;100041.91;;;6.80;89.80
75543;BME280;64129;53.508;10.476;2024-03-02T05:46:04;100048.00;;;6.88;89.83
75543;BME280;64129;53.508;10.476;2024-03-02T05:48:39;100046.28;;;6.85;89.46
75543;BME280;64129;53.508;10.476;2024-03-02T05:51:23;100055.84;;;6.86;89.41
75543;BME280;64129;53.508;10.476;2024-03-02T05:53:54;100047.16;;;6.81;88.10
75543;BME280;64129;53.508;10.476;2024-03-02T05:56:37;100045.41;;;6.86;89.03
75543;BME280;64129;53.508;10.476;2024-03-02T05:59:05;100047.16;;;6.86;89.17
75543;BME280;64129;53.508;10.476;2024-03-02T06:01:56;100050.59;;;6.80;89.71
75543;BME280;64129;53.508;10.476;2024-03-02T06:04:27;100045.38;;;6.89;88.37
75543;BME280;64129;53.508;10.476;2024-03-02T06:07:07;100043.66;;;6.78;89.81
75543;BME280;64129;53.508;10.476;2024-03-02T06:09:38;100046.28;;;6.58;90.66
75543;BME280;64129;53.508;10.476;2024-03-02T06:12:21;100048.03;;;6.63;90.76
75543;BME280;64129;53.508;10.476;2024-03-02T06:14:49;100054.13;;;6.67;90.81
75543;BME280;64129;53.508;10.476;2024-03-02T06:17:17;100054.97;;;6.75;90.73
75543;BME280;64129;53.508;10.476;2024-03-02T06:19:51;100057.56;;;6.80;89.34
75543;BME280;64129;53.508;10.476;2024-03-02T06:22:24;100055.81;;;6.62;91.14
75543;BME280;64129;53.508;10.476;2024-03-02T06:25:01;100061.03;;;6.85;88.92
75543;BME280;64129;53.508;10.476;2024-03-02T06:27:45;100060.19;;;6.83;89.83
75543;BME280;64129;53.508;10.476;2024-03-02T06:30:12;100061.91;;;6.70;90.38
75543;BME280;64129;53.508;10.476;2024-03-02T06:32:43;100062.81;;;6.54;91.49
75543;BME280;64129;53.508;10.476;2024-03-02T06:35:20;100061.94;;;6.78;89.81
75543;BME280;64129;53.508;10.476;2024-03-02T06:37:58;100056.72;;;6.81;89.88
75543;BME280;64129;53.508;10.476;2024-03-02T06:40:29;100058.44;;;6.73;89.59
75543;BME280;64129;53.508;10.476;2024-03-02T06:43:02;100062.78;;;6.78;88.60
75543;BME280;64129;53.508;10.476;2024-03-02T06:45:34;100063.66;;;6.79;90.59
75543;BME280;64129;53.508;10.476;2024-03-02T06:48:15;100062.78;;;6.84;89.23
75543;BME280;64129;53.508;10.476;2024-03-02T06:50:56;100065.38;;;6.80;89.05
75543;BME280;64129;53.508;10.476;2024-03-02T06:53:32;100068.88;;;6.79;90.24
75543;BME280;64129;53.508;10.476;2024-03-02T06:56:10;100063.66;;;6.73;90.91
75543;BME280;64129;53.508;10.476;2024-03-02T06:58:42;100068.00;;;6.84;89.97
75543;BME280;64129;53.508;10.476;2024-03-02T07:01:13;100074.94;;;6.98;88.55
75543;BME280;64129;53.508;10.476;2024-03-02T07:03:39;100071.47;;;6.96;89.29
75543;BME280;64129;53.508;10.476;2024-03-02T07:06:10;100074.97;;;6.92;89.40
75543;BME280;64129;53.508;10.476;2024-03-02T07:08:40;100079.28;;;7.06;88.64
75543;BME280;64129;53.508;10.476;2024-03-02T07:11:14;100079.28;;;7.11;89.40
75543;BME280;64129;53.508;10.476;2024-03-02T07:13:44;100073.19;;;6.98;88.99
75543;BME280;64129;53.508;10.476;2024-03-02T07:16:22;100081.06;;;6.95;89.76
75543;BME280;64129;53.508;10.476;2024-03-02T07:19:07;100085.34;;;7.18;88.98
75543;BME280;64129;53.508;10.476;2024-03-02T07:21:38;100084.47;;;7.26;88.03
75543;BME280;64129;53.508;10.476;2024-03-02T07:24:14;100081.00;;;7.29;88.77
75543;BME280;64129;53.508;10.476;2024-03-02T07:26:43;100084.44;;;7.35;88.04
75543;BME280;64129;53.508;10.476;2024-03-02T07:29:20;100087.28;;;8.66;89.17
75543;BME280;64129;53.508;10.476;2024-03-02T07:32:23;100078.88;;;9.29;82.98
75543;BME280;64129;53.508;10.476;2024-03-02T07:35:03;100083.31;;;8.04;84.52
75543;BME280;64129;53.508;10.476;2024-03-02T07:37:33;100092.09;;;7.90;86.08
75543;BME280;64129;53.508;10.476;2024-03-02T07:40:04;100092.03;;;8.03;84.78
75543;BME280;64129;53.508;10.476;2024-03-02T07:42:33;100092.03;;;8.00;86.55
75543;BME280;64129;53.508;10.476;2024-03-02T07:45:04;100093.84;;;7.90;87.14
75543;BME280;64129;53.508;10.476;2024-03-02T07:48:02;100092.06;;;7.98;85.98
75543;BME280;64129;53.508;10.476;2024-03-02T07:50:32;100092.94;;;7.99;86.77
75543;BME280;64129;53.508;10.476;2024-03-02T07:53:14;100083.31;;;8.04;86.93
75543;BME280;64129;53.508;10.476;2024-03-02T07:55:41;100089.41;;;8.01;86.96
75543;BME280;64129;53.508;10.476;2024-03-02T07:58:17;100097.28;;;7.92;85.57
75543;BME280;64129;53.508;10.476;2024-03-02T08:00:52;100110.44;;;7.77;86.98
75543;BME280;64129;53.508;10.476;2024-03-02T08:03:20;100113.81;;;8.03;85.53
75543;BME280;64129;53.508;10.476;2024-03-02T08:05:47;100114.72;;;7.90;85.73
75543;BME280;64129;53.508;10.476;2024-03-02T08:08:14;100119.03;;;8.00;85.20
75543;BME280;64129;53.508;10.476;2024-03-02T08:10:50;100124.25;;;8.08;85.26
75543;BME280;64129;53.508;10.476;2024-03-02T08:13:30;100123.44;;;7.93;85.21
75543;BME280;64129;53.508;10.476;2024-03-02T08:16:01;100128.59;;;8.09;85.00
75543;BME280;64129;53.508;10.476;2024-03-02T08:18:33;100129.47;;;8.08;85.04
75543;BME280;64129;53.508;10.476;2024-03-02T08:21:04;100126.84;;;8.08;85.14
75543;BME280;64129;53.508;10.476;2024-03-02T08:23:37;100138.19;;;8.05;85.66
75543;BME280;64129;53.508;10.476;2024-03-02T08:26:13;100133.75;;;8.26;84.98
75543;BME280;64129;53.508;10.476;2024-03-02T08:28:40;100131.91;;;8.45;84.15
75543;BME280;64129;53.508;10.476;2024-03-02T08:31:10;100131.84;;;8.52;83.37
75543;BME280;64129;53.508;10.476;2024-03-02T08:33:37;100135.41;;;8.39;83.26
75543;BME280;64129;53.508;10.476;2024-03-02T08:36:17;100130.94;;;8.59;84.32
75543;BME280;64129;53.508;10.476;2024-03-02T08:38:45;100135.19;;;8.76;82.47
75543;BME280;64129;53.508;10.476;2024-03-02T08:41:15;100142.00;;;8.97;82.63
75543;BME280;64129;53.508;10.476;2024-03-02T08:43:46;100135.66;;;9.22;82.75
75543;BME280;64129;53.508;10.476;2024-03-02T08:46:25;100140.06;;;9.17;81.24
75543;BME280;64129;53.508;10.476;2024-03-02T08:48:55;100143.41;;;9.36;80.05
75543;BME280;64129;53.508;10.476;2024-03-02T08:51:25;100141.75;;;9.26;80.37
75543;BME280;64129;53.508;10.476;2024-03-02T08:53:58;100140.41;;;9.73;80.63
75543;BME280;64129;53.508;10.476;2024-03-02T08:56:28;100139.56;;;9.70;78.97
75543;BME280;64129;53.508;10.476;2024-03-02T08:58:58;100145.75;;;9.60;79.35
75543;BME280;64129;53.508;10.476;2024-03-02T09:01:28;100140.22;;;9.88;79.32
75543;BME280;64129;53.508;10.476;2024-03-02T09:04:18;100146.91;;;10.13;78.16
75543;BME280;64129;53.508;10.476;2024-03-02T09:06:48;100144.13;;;10.26;78.80
75543;BME280;64129;53.508;10.476;2024-03-02T09:09:15;100146.47;;;10.47;77.29
75543;BME280;64129;53.508;10.476;2024-03-02T09:11:42;100137.44;;;10.66;76.75
75543;BME280;64129;53.508;10.476;2024-03-02T09:14:17;100140.00;;;10.72;77.00
75543;BME280;64129;53.508;10.476;2024-03-02T09:16:47;100145.16;;;10.79;76.14
75543;BME280;64129;53.508;10.476;2024-03-02T09:19:14;100146.03;;;10.76;75.80
75543;BME280;64129;53.508;10.476;2024-03-02T09:21:50;100142.34;;;10.89;75.44
75543;BME280;64129;53.508;10.476;2024-03-02T09:24:18;100136.84;;;11.05;74.81
75543;BME280;64129;53.508;10.476;2024-03-02T09:26:49;100140.38;;;11.02;74.57
75543;BME280;64129;53.508;10.476;2024-03-02T09:29:21;100136.03;;;12.39;74.30
75543;BME280;64129;53.508;10.476;2024-03-02T09:31:54;100134.25;;;12.78;73.14
75543;BME280;64129;53.508;10.476;2024-03-02T09:34:28;100137.88;;;12.72;70.96
75543;BME280;64129;53.508;10.476;2024-03-02T09:37:04;100150.28;;;12.67;73.67
75543;BME280;64129;53.508;10.476;2024-03-02T09:39:39;100147.34;;;12.42;72.97
75543;BME280;64129;53.508;10.476;2024-03-02T09:42:08;100147.69;;;12.66;73.00
75543;BME280;64129;53.508;10.476;2024-03-02T09:44:36;100147.28;;;12.05;70.98
75543;BME280;64129;53.508;10.476;2024-03-02T09:47:15;100140.72;;;12.24;70.78
75543;BME280;64129;53.508;10.476;2024-03-02T09:49:49;100149.16;;;12.40;71.01
75543;BME280;64129;53.508;10.476;2024-03-02T09:52:26;100150.81;;;12.44;70.40
75543;BME280;64129;53.508;10.476;2024-03-02T09:54:59;100146.56;;;12.39;69.78
75543;BME280;64129;53.508;10.476;2024-03-02T09:57:29;100151.91;;;12.36;70.29
75543;BME280;64129;53.508;10.476;2024-03-02T09:59:58;100152.34;;;12.55;69.02
75543;BME280;64129;53.508;10.476;2024-03-02T10:02:28;100157.63;;;12.55;68.44
75543;BME280;64129;53.508;10.476;2024-03-02T10:04:57;100157.47;;;12.61;67.31
75543;BME280;64129;53.508;10.476;2024-03-02T10:07:27;100152.25;;;12.59;68.46
75543;BME280;64129;53.508;10.476;2024-03-02T10:10:15;100153.44;;;12.46;70.03
75543;BME280;64129;53.508;10.476;2024-03-02T10:13:03;100149.69;;;12.56;67.78
75543;BME280;64129;53.508;10.476;2024-03-02T10:15:44;100148.06;;;12.88;66.17
75543;BME280;64129;53.508;10.476;2024-03-02T10:18:11;100147.84;;;12.60;66.55
75543;BME280;64129;53.508;10.476;2024-03-02T10:20:46;100142.91;;;12.83;66.61
75543;BME280;64129;53.508;10.476;2024-03-02T10:23:16;100146.53;;;12.79;66.56
75543;BME280;64129;53.508;10.476;2024-03-02T10:25:46;100151.75;;;12.42;66.63
75543;BME280;64129;53.508;10.476;2024-03-02T10:28:16;100150.84;;;12.82;67.58
75543;BME280;64129;53.508;10.476;2024-03-02T10:30:43;100154.75;;;12.65;67.65
75543;BME280;64129;53.508;10.476;2024-03-02T10:33:24;100151.94;;;12.73;67.24
75543;BME280;64129;53.508;10.476;2024-03-02T10:36:01;100160.72;;;12.73;68.43
75543;BME280;64129;53.508;10.476;2024-03-02T10:38:47;100153.56;;;12.79;69.68
75543;BME280;64129;53.508;10.476;2024-03-02T10:41:26;100152.97;;;12.66;69.16
75543;BME280;64129;53.508;10.476;2024-03-02T10:43:57;100158.59;;;12.49;66.79
75543;BME280;64129;53.508;10.476;2024-03-02T10:46:34;100152.97;;;12.66;67.12
75543;BME280;64129;53.508;10.476;2024-03-02T10:49:07;100154.69;;;12.68;66.61
75543;BME280;64129;53.508;10.476;2024-03-02T10:51:41;100152.06;;;12.67;68.17
75543;BME280;64129;53.508;10.476;2024-03-02T10:54:17;100158.94;;;12.74;65.56
75543;BME280;64129;53.508;10.476;2024-03-02T10:56:53;100147.63;;;13.06;66.63
75543;BME280;64129;53.508;10.476;2024-03-02T10:59:33;100162.06;;;12.90;66.13
75543;BME280;64129;53.508;10.476;2024-03-02T11:02:16;100157.41;;;12.64;65.40
75543;BME280;64129;53.508;10.476;2024-03-02T11:04:55;100159.28;;;12.96;65.91
75543;BME280;64129;53.508;10.476;2024-03-02T11:07:27;100157.63;;;12.92;66.02
75543;BME280;64129;53.508;10.476;2024-03-02T11:10:02;100146.53;;;12.77;67.56
75543;BME280;64129;53.508;10.476;2024-03-02T11:13:02;100156.25;;;12.37;67.14
75543;BME280;64129;53.508;10.476;2024-03-02T11:15:39;100144.72;;;13.17;65.31
75543;BME280;64129;53.508;10.476;2024-03-02T11:18:11;100148.75;;;13.32;64.29
75543;BME280;64129;53.508;10.476;2024-03-02T11:20:39;100148.22;;;13.51;64.53
75543;BME280;64129;53.508;10.476;2024-03-02T11:23:32;100140.03;;;13.95;62.85
75543;BME280;64129;53.508;10.476;2024-03-02T11:26:23;100141.53;;;14.03;61.50
75543;BME280;64129;53.508;10.476;2024-03-02T11:28:57;100145.38;;;14.23;62.18
75543;BME280;64129;53.508;10.476;2024-03-02T11:32:03;100141.53;;;14.03;59.88
75543;BME280;64129;53.508;10.476;2024-03-02T11:34:42;100148.81;;;14.56;63.68
75543;BME280;64129;53.508;10.476;2024-03-02T11:37:20;100144.03;;;14.38;61.17
75543;BME280;64129;53.508;10.476;2024-03-02T11:39:55;100146.22;;;14.23;61.17
75543;BME280;64129;53.508;10.476;2024-03-02T11:42:23;100145.53;;;14.17;60.70
75543;BME280;64129;53.508;10.476;2024-03-02T11:44:50;100142.59;;;14.27;59.09
75543;BME280;64129;53.508;10.476;2024-03-02T11:47:31;100144.72;;;14.74;59.44
75543;BME280;64129;53.508;10.476;2024-03-02T11:50:03;100137.50;;;15.32;61.97
75543;BME280;64129;53.508;10.476;2024-03-02T11:52:40;100134.53;;;15.41;57.51
75543;BME280;64129;53.508;10.476;2024-03-02T11:55:19;100145.84;;;15.71;56.79
75543;BME280;64129;53.508;10.476;2024-03-02T11:57:55;100136.66;;;15.31;56.24
75543;BME280;64129;53.508;10.476;2024-03-02T12:00:25;100132.97;;;15.61;55.11
75543;BME280;64129;53.508;10.476;2024-03-02T12:03:07;100138.94;;;15.92;53.34
75543;BME280;64129;53.508;10.476;2024-03-02T12:05:44;100135.75;;;15.82;55.76
75543;BME280;64129;53.508;10.476;2024-03-02T12:08:16;100139.53;;;16.00;53.90
75543;BME280;64129;53.508;10.476;2024-03-02T12:11:01;100145.75;;;15.99;53.74
75543;BME280;64129;53.508;10.476;2024-03-02T12:13:31;100136.09;;;15.48;55.76
75543;BME280;64129;53.508;10.476;2024-03-02T12:16:05;100139.28;;;16.06;56.61
75543;BME280;64129;53.508;10.476;2024-03-02T12:18:37;100134.16;;;16.02;54.10
75543;BME280;64129;53.508;10.476;2024-03-02T12:21:10;100136.78;;;15.78;55.31
75543;BME280;64129;53.508;10.476;2024-03-02T12:23:41;100132.34;;;15.54;55.53
75543;BME280;64129;53.508;10.476;2024-03-02T12:26:14;100131.16;;;15.63;57.70
75543;BME280;64129;53.508;10.476;2024-03-02T12:28:44;100137.22;;;15.66;54.66
75543;BME280;64129;53.508;10.476;2024-03-02T12:31:14;100132.63;;;16.20;54.01
75543;BME280;64129;53.508;10.476;2024-03-02T12:33:49;100131.88;;;16.16;52.54
75543;BME280;64129;53.508;10.476;2024-03-02T12:36:27;100120.56;;;15.64;59.36
75543;BME280;64129;53.508;10.476;2024-03-02T12:38:55;100124.59;;;15.48;58.12
75543;BME280;64129;53.508;10.476;2024-03-02T12:41:38;100122.25;;;15.40;54.20
75543;BME280;64129;53.508;10.476;2024-03-02T12:44:09;100117.00;;;15.39;55.57
75543;BME280;64129;53.508;10.476;2024-03-02T12:46:36;100118.78;;;15.38;58.41
75543;BME280;64129;53.508;10.476;2024-03-02T12:49:17;100125.47;;;15.23;56.60
75543;BME280;64129;53.508;10.476;2024-03-02T12:51:51;100134.16;;;14.74;56.61
75543;BME280;64129;53.508;10.476;2024-03-02T12:54:25;100131.41;;;14.49;59.13
75543;BME280;64129;53.508;10.476;2024-03-02T12:56:58;100127.16;;;14.99;59.33
75543;BME280;64129;53.508;10.476;2024-03-02T12:59:29;100127.63;;;14.58;58.57
75543;BME280;64129;53.508;10.476;2024-03-02T13:01:57;100129.06;;;14.38;57.89
75543;BME280;64129;53.508;10.476;2024-03-02T13:04:31;100123.31;;;14.55;58.17
75543;BME280;64129;53.508;10.476;2024-03-02T13:06:58;100124.91;;;14.29;58.12
75543;BME280;64129;53.508;10.476;2024-03-02T13:09:29;100125.94;;;14.55;58.54
75543;BME280;64129;53.508;10.476;2024-03-02T13:12:00;100122.47;;;14.53;60.54
75543;BME280;64129;53.508;10.476;2024-03-02T13:14:34;100127.03;;;14.18;58.99
75543;BME280;64129;53.508;10.476;2024-03-02T13:17:02;100122.28;;;14.00;59.92
75543;BME280;64129;53.508;10.476;2024-03-02T13:19:32;100128.94;;;14.13;60.10
75543;BME280;64129;53.508;10.476;2024-03-02T13:21:59;100132.03;;;14.27;62.35
75543;BME280;64129;53.508;10.476;2024-03-02T13:24:30;100128.16;;;13.78;60.38